createdAt,value
2022-12-20T00:01:38.453Z,59.66
2022-12-20T00:04:40.878Z,59.41
2022-12-20T00:07:43.237Z,59.19
2022-12-20T00:10:46.754Z,59.71
2022-12-20T00:13:49.320Z,59.28
2022-12-20T00:16:51.933Z,58.91
2022-12-20T00:19:54.034Z,58.83
2022-12-20T00:22:57.260Z,59.29
2022-12-20T00:26:08.007Z,59.47
2022-12-20T00:29:10.589Z,58.90
2022-12-20T00:32:14.172Z,59.38
2022-12-20T00:35:16.374Z,59.37
2022-12-20T00:38:18.566Z,58.88
2022-12-20T00:41:26.819Z,58.82
2022-12-20T00:44:28.959Z,58.89
2022-12-20T00:47:31.092Z,58.37
2022-12-20T00:50:33.314Z,58.74
2022-12-20T00:53:36.660Z,58.58
2022-12-20T00:56:38.885Z,58.20
2022-12-20T00:59:41.118Z,58.22
2022-12-20T01:02:44.461Z,58.22
2022-12-20T01:06:01.423Z,58.21
2022-12-20T01:09:03.938Z,58.17
2022-12-20T01:12:08.584Z,58.26
2022-12-20T01:15:12.619Z,57.65
2022-12-20T01:18:14.809Z,57.61
2022-12-20T01:21:19.348Z,57.86
2022-12-20T01:24:21.488Z,57.90
2022-12-20T01:27:23.687Z,57.53
2022-12-20T01:30:25.817Z,58.21
2022-12-20T01:33:28.577Z,57.66
2022-12-20T01:36:33.758Z,57.01
2022-12-20T01:39:36.559Z,57.89
2022-12-20T01:42:38.829Z,57.59
2022-12-20T01:45:41.448Z,57.97
2022-12-20T01:48:47.312Z,58.31
2022-12-20T01:52:00.768Z,57.80
2022-12-20T01:55:05.675Z,57.86
2022-12-20T01:58:13.034Z,58.05
2022-12-20T02:01:16.258Z,57.74
2022-12-20T02:04:18.256Z,57.75
2022-12-20T02:07:30.012Z,57.29
2022-12-20T02:10:42.989Z,56.80
2022-12-20T02:14:06.863Z,56.99
2022-12-20T02:17:19.041Z,56.43
2022-12-20T02:20:35.865Z,56.27
2022-12-20T02:24:02.194Z,56.62
2022-12-20T02:27:10.175Z,56.93
2022-12-20T02:30:14.870Z,56.47
2022-12-20T02:33:19.173Z,56.95
2022-12-20T02:36:21.588Z,56.98
2022-12-20T02:39:29.006Z,56.94
2022-12-20T02:42:33.816Z,57.36
2022-12-20T02:45:37.732Z,57.22
2022-12-20T02:48:41.953Z,57.71
2022-12-20T02:51:48.642Z,58.18
2022-12-20T02:54:50.933Z,57.04
2022-12-20T02:58:02.984Z,56.64
2022-12-20T03:01:11.072Z,56.03
2022-12-20T03:04:13.717Z,55.48
2022-12-20T03:07:15.913Z,55.28
2022-12-20T03:10:19.325Z,55.88
2022-12-20T03:13:23.613Z,55.32
2022-12-20T03:16:52.604Z,55.54
2022-12-20T03:19:54.807Z,55.20
2022-12-20T03:22:56.871Z,55.79
2022-12-20T03:25:58.990Z,56.10
2022-12-20T03:29:12.377Z,56.47
2022-12-20T03:32:15.538Z,56.16
2022-12-20T03:35:20.036Z,56.30
2022-12-20T03:38:22.405Z,56.21
2022-12-20T03:41:25.949Z,55.48
2022-12-20T03:44:28.431Z,56.05
2022-12-20T03:47:30.838Z,55.35
2022-12-20T03:50:33.388Z,55.46
2022-12-20T03:53:39.120Z,54.48
2022-12-20T03:56:41.313Z,54.44
2022-12-20T03:59:43.718Z,54.15
2022-12-20T04:02:50.575Z,54.38
2022-12-20T04:05:53.497Z,54.67
2022-12-20T04:08:55.857Z,53.94
2022-12-20T04:12:04.150Z,54.64
2022-12-20T04:15:10.049Z,55.19
2022-12-20T04:18:14.726Z,55.50
2022-12-20T04:21:32.564Z,55.55
2022-12-20T04:24:34.715Z,55.13
2022-12-20T04:27:58.881Z,55.50
2022-12-20T04:31:02.651Z,55.06
2022-12-20T04:34:08.361Z,55.38
2022-12-20T04:37:11.092Z,54.84
2022-12-20T04:40:20.850Z,54.68
2022-12-20T04:43:28.399Z,57.98
2022-12-20T04:46:34.815Z,58.18
2022-12-20T04:49:39.366Z,57.50
2022-12-20T04:53:00.833Z,51.28
2022-12-20T04:56:04.850Z,50.16
2022-12-20T04:59:07.036Z,49.75
2022-12-20T05:02:09.369Z,48.13
2022-12-20T05:05:31.791Z,47.09
2022-12-20T05:08:34.719Z,45.85
2022-12-20T05:11:37.254Z,45.22
2022-12-20T05:14:42.961Z,52.88
2022-12-20T05:17:46.741Z,57.37
2022-12-20T05:21:09.678Z,60.55
2022-12-20T05:24:31.026Z,58.38
2022-12-20T05:27:45.601Z,57.45
2022-12-20T05:30:47.794Z,59.46
2022-12-20T05:33:50.059Z,57.92
2022-12-20T05:36:52.535Z,55.62
2022-12-20T05:39:56.387Z,56.73
2022-12-20T05:42:59.851Z,56.20
2022-12-20T05:46:10.913Z,53.94
2022-12-20T05:49:25.369Z,55.88
2022-12-20T05:52:28.447Z,56.15
2022-12-20T05:55:30.900Z,56.97
2022-12-20T05:58:33.651Z,58.41
2022-12-20T06:01:38.770Z,64.39
2022-12-20T06:04:41.488Z,67.10
2022-12-20T06:07:53.004Z,65.11
2022-12-20T06:10:59.667Z,62.02
2022-12-20T06:14:01.923Z,59.01
2022-12-20T06:17:05.352Z,55.24
2022-12-20T06:20:10.066Z,55.10
2022-12-20T06:23:12.124Z,51.47
2022-12-20T06:26:23.486Z,50.22
2022-12-20T06:29:26.022Z,52.83
2022-12-20T06:32:40.483Z,50.50
2022-12-20T06:35:44.488Z,52.81
2022-12-20T06:38:46.629Z,54.75
2022-12-20T06:41:50.140Z,56.33
2022-12-20T06:44:52.837Z,58.22
2022-12-20T06:47:55.042Z,60.29
2022-12-20T06:50:58.905Z,58.78
2022-12-20T06:54:03.055Z,61.05
2022-12-20T06:57:08.414Z,58.46
2022-12-20T07:00:12.908Z,55.95
2022-12-20T07:03:16.402Z,59.50
2022-12-20T07:06:19.856Z,51.23
2022-12-20T07:09:22.241Z,49.69
2022-12-20T07:12:24.640Z,52.28
2022-12-20T07:15:27.997Z,48.59
2022-12-20T07:18:30.592Z,47.28
2022-12-20T07:21:33.122Z,47.28
2022-12-20T07:24:36.299Z,46.65
2022-12-20T07:27:39.865Z,44.78
2022-12-20T07:30:41.927Z,44.68
2022-12-20T07:33:45.584Z,49.06
2022-12-20T07:36:48.491Z,46.78
2022-12-20T07:39:52.098Z,48.82
2022-12-20T07:42:55.063Z,48.95
2022-12-20T07:46:06.982Z,50.69
2022-12-20T07:49:09.636Z,51.54
2022-12-20T07:52:15.312Z,51.69
2022-12-20T07:55:18.126Z,48.95
2022-12-20T07:58:20.898Z,46.71
2022-12-20T08:01:23.190Z,47.01
2022-12-20T08:04:30.351Z,46.94
2022-12-20T08:07:32.637Z,44.62
2022-12-20T08:10:35.033Z,43.93
2022-12-20T08:13:42.629Z,44.23
2022-12-20T08:16:48.310Z,43.59
2022-12-20T08:19:54.739Z,42.41
2022-12-20T08:22:57.002Z,42.87
2022-12-20T08:26:01.860Z,43.29
2022-12-20T08:29:03.915Z,42.50
2022-12-20T08:32:07.704Z,42.13
2022-12-20T08:35:10.075Z,42.14
2022-12-20T08:38:12.528Z,42.64
2022-12-20T08:41:15.963Z,41.61
2022-12-20T08:44:18.036Z,41.25
2022-12-20T08:47:20.325Z,42.26
2022-12-20T08:50:23.152Z,41.18
2022-12-20T08:53:25.516Z,39.61
2022-12-20T08:56:27.636Z,41.40
2022-12-20T08:59:30.109Z,42.84
2022-12-20T09:02:32.680Z,40.12
2022-12-20T09:05:34.942Z,40.51
2022-12-20T09:08:38.781Z,42.15
2022-12-20T09:11:40.960Z,42.40
2022-12-20T09:14:43.087Z,40.57
2022-12-20T09:17:45.346Z,42.35
2022-12-20T09:20:47.611Z,44.37
2022-12-20T09:23:54.960Z,43.12
2022-12-20T09:26:57.064Z,44.78
2022-12-20T09:29:59.203Z,45.87
2022-12-20T09:33:09.715Z,47.07
2022-12-20T09:36:14.902Z,46.29
2022-12-20T09:39:16.972Z,45.31
2022-12-20T09:42:24.952Z,47.52
2022-12-20T09:45:30.373Z,47.17
2022-12-20T09:48:35.718Z,48.39
2022-12-20T09:52:15.413Z,50.56
2022-12-20T09:55:39.583Z,51.89
2022-12-20T09:59:05.192Z,47.75
2022-12-20T10:02:53.067Z,45.05
2022-12-20T10:05:58.963Z,47.09
2022-12-20T10:09:31.851Z,46.85
2022-12-20T10:12:42.899Z,48.78
2022-12-20T10:15:54.912Z,48.77
2022-12-20T10:19:22.121Z,45.56
2022-12-20T10:22:30.729Z,46.56
2022-12-20T10:25:33.953Z,49.52
2022-12-20T10:28:37.165Z,46.07
2022-12-20T10:31:40.992Z,43.89
2022-12-20T10:35:10.765Z,45.31
2022-12-20T10:38:17.816Z,46.12
2022-12-20T10:41:24.521Z,43.94
2022-12-20T10:44:29.991Z,43.83
2022-12-20T10:47:42.363Z,44.88
2022-12-20T10:50:56.829Z,42.53
2022-12-20T10:54:04.291Z,42.01
2022-12-20T10:57:28.741Z,44.70
2022-12-20T11:00:32.363Z,42.95
2022-12-20T11:03:50.250Z,40.83
2022-12-20T11:06:52.523Z,41.62
2022-12-20T11:10:01.226Z,42.38
2022-12-20T11:13:04.434Z,40.94
2022-12-20T11:16:06.981Z,41.97
2022-12-20T11:19:41.493Z,41.71
2022-12-20T11:23:01.884Z,40.24
2022-12-20T11:26:25.673Z,41.60
2022-12-20T11:29:36.819Z,41.73
2022-12-20T11:33:00.610Z,40.53
2022-12-20T11:36:18.188Z,40.79
2022-12-20T11:39:51.295Z,40.49
2022-12-20T11:43:04.915Z,39.83
2022-12-20T11:46:32.466Z,39.82
2022-12-20T11:49:46.445Z,40.67
2022-12-20T11:53:08.201Z,38.83
2022-12-20T11:56:19.013Z,39.06
2022-12-20T11:59:42.965Z,40.66
2022-12-20T12:02:45.240Z,40.62
2022-12-20T12:06:02.651Z,39.98
2022-12-20T12:09:23.377Z,41.87
2022-12-20T12:12:38.058Z,40.30
2022-12-20T12:15:55.331Z,40.37
2022-12-20T12:19:00.919Z,40.46
2022-12-20T12:22:16.370Z,39.01
2022-12-20T12:25:19.512Z,39.22
2022-12-20T12:28:23.408Z,40.46
2022-12-20T12:31:32.567Z,39.42
2022-12-20T12:34:43.816Z,38.92
2022-12-20T12:38:15.437Z,38.40
2022-12-20T12:41:20.297Z,39.78
2022-12-20T12:44:25.311Z,38.37
2022-12-20T12:47:43.503Z,36.69
2022-12-20T12:50:49.396Z,38.24
2022-12-20T12:53:53.970Z,37.29
2022-12-20T12:57:15.495Z,37.05
2022-12-20T13:00:54.527Z,37.13
2022-12-20T13:04:02.139Z,37.67
2022-12-20T13:07:43.704Z,36.95
2022-12-20T13:10:45.778Z,37.78
2022-12-20T13:13:48.197Z,37.88
2022-12-20T13:17:17.224Z,37.84
2022-12-20T13:20:30.026Z,36.75
2022-12-20T13:23:32.103Z,37.79
2022-12-20T13:26:57.113Z,38.20
2022-12-20T13:30:07.929Z,36.76
2022-12-20T13:33:24.620Z,38.07
2022-12-20T13:36:39.389Z,38.44
2022-12-20T13:39:50.887Z,37.48
2022-12-20T13:42:57.141Z,39.69
2022-12-20T13:46:14.885Z,39.92
2022-12-20T13:49:28.132Z,39.11
2022-12-20T13:52:43.287Z,39.02
2022-12-20T13:55:45.960Z,40.03
2022-12-20T13:58:48.280Z,38.65
2022-12-20T14:01:53.474Z,38.49
2022-12-20T14:05:26.767Z,38.73
2022-12-20T14:08:38.880Z,40.41
2022-12-20T14:11:47.818Z,42.14
2022-12-20T14:14:51.574Z,41.88
2022-12-20T14:17:54.013Z,42.92
2022-12-20T14:20:59.778Z,45.49
2022-12-20T14:24:05.622Z,46.44
2022-12-20T14:27:12.523Z,47.52
2022-12-20T14:30:36.697Z,48.03
2022-12-20T14:33:43.191Z,48.04
2022-12-20T14:36:50.153Z,47.70
2022-12-20T14:40:13.508Z,47.87
2022-12-20T14:43:17.138Z,48.71
2022-12-20T14:46:23.537Z,50.71
2022-12-20T14:50:08.859Z,50.98
2022-12-20T14:53:20.557Z,50.68
2022-12-20T14:56:29.700Z,50.33
2022-12-20T14:59:34.062Z,50.19
2022-12-20T15:03:01.821Z,53.05
2022-12-20T15:06:05.781Z,53.72
2022-12-20T15:09:08.927Z,55.62
2022-12-20T15:12:13.090Z,55.56
2022-12-20T15:15:31.226Z,55.99
2022-12-20T15:18:33.720Z,56.92
2022-12-20T15:21:40.595Z,56.06
2022-12-20T15:24:45.218Z,56.07
2022-12-20T15:27:47.353Z,55.73
2022-12-20T15:30:51.399Z,56.36
2022-12-20T15:33:59.575Z,56.40
2022-12-20T15:37:02.745Z,55.17
2022-12-20T15:40:05.194Z,55.01
2022-12-20T15:43:14.177Z,56.15
2022-12-20T15:46:17.589Z,54.67
2022-12-20T15:49:21.441Z,55.81
2022-12-20T15:52:25.630Z,55.45
2022-12-20T15:55:28.190Z,55.40
2022-12-20T15:58:30.656Z,54.12
2022-12-20T16:01:40.704Z,54.83
2022-12-20T16:04:43.147Z,54.90
2022-12-20T16:07:45.196Z,55.42
2022-12-20T16:10:48.123Z,55.39
2022-12-20T16:13:54.235Z,54.93
2022-12-20T16:16:56.413Z,56.62
2022-12-20T16:19:59.317Z,57.66
2022-12-20T16:23:04.918Z,57.37
2022-12-20T16:26:07.219Z,57.73
2022-12-20T16:29:09.390Z,58.97
2022-12-20T16:32:16.472Z,58.59
2022-12-20T16:35:25.713Z,57.01
2022-12-20T16:38:27.834Z,57.35
2022-12-20T16:41:33.057Z,58.08
2022-12-20T16:44:35.126Z,56.64
2022-12-20T16:47:38.100Z,56.89
2022-12-20T16:50:43.551Z,56.16
2022-12-20T16:54:17.518Z,56.43
2022-12-20T16:57:08.932Z,56.45
2022-12-20T17:00:17.611Z,56.83
2022-12-20T17:03:20.039Z,56.54
2022-12-20T17:06:22.304Z,56.70
2022-12-20T17:09:24.494Z,57.70
2022-12-20T17:12:26.665Z,58.16
2022-12-20T17:15:32.055Z,58.03
2022-12-20T17:18:34.051Z,57.58
2022-12-20T17:24:58.343Z,58.06
2022-12-20T17:28:01.824Z,58.90
2022-12-20T17:31:08.166Z,58.63
2022-12-20T17:34:23.744Z,58.28
2022-12-20T17:37:25.761Z,55.66
2022-12-20T17:40:29.061Z,53.37
2022-12-20T17:43:31.146Z,55.51
2022-12-20T17:46:33.203Z,59.18
2022-12-20T17:49:35.164Z,60.58
2022-12-20T17:52:38.165Z,62.35
2022-12-20T17:55:40.465Z,64.05
2022-12-20T17:58:43.968Z,64.12
2022-12-20T18:01:48.435Z,65.15
2022-12-20T18:04:51.363Z,65.18
2022-12-20T18:07:55.504Z,64.53
2022-12-20T18:10:58.637Z,64.86
2022-12-20T18:14:01.415Z,64.27
2022-12-20T18:17:03.526Z,64.45
2022-12-20T18:20:07.913Z,64.75
2022-12-20T18:23:10.080Z,65.11
2022-12-20T18:26:20.917Z,64.92
2022-12-20T18:29:23.051Z,65.17
2022-12-20T18:32:25.257Z,65.14
2022-12-20T18:35:28.407Z,63.77
2022-12-20T18:38:33.619Z,65.03
2022-12-20T18:41:36.425Z,66.32
2022-12-20T18:44:43.040Z,67.24
2022-12-20T18:47:45.365Z,68.26
2022-12-20T18:50:48.108Z,69.56
2022-12-20T18:53:51.615Z,71.05
2022-12-20T18:56:53.865Z,72.29
2022-12-20T18:59:55.978Z,74.28
2022-12-20T19:03:00.284Z,77.52
2022-12-20T19:06:08.985Z,80.01
2022-12-20T19:09:12.349Z,84.83
2022-12-20T19:12:14.991Z,87.94
2022-12-20T19:15:21.247Z,93.00
2022-12-20T19:18:23.303Z,97.52
2022-12-20T19:21:27.967Z,100.00
2022-12-20T19:24:30.322Z,100.00
2022-12-20T19:27:32.448Z,100.00
2022-12-20T19:30:34.740Z,100.00
2022-12-20T19:33:40.942Z,100.00
2022-12-20T19:36:46.671Z,100.00
2022-12-20T19:39:49.677Z,100.00
2022-12-20T19:42:56.446Z,100.00
2022-12-20T19:45:59.570Z,100.00
2022-12-20T19:49:04.786Z,99.95
2022-12-20T19:52:08.982Z,99.79
2022-12-20T19:55:11.097Z,99.99
2022-12-20T19:58:13.662Z,99.22
2022-12-20T20:01:18.146Z,98.91
2022-12-20T20:04:20.521Z,97.94
2022-12-20T20:07:25.068Z,97.60
2022-12-20T20:10:27.471Z,96.85
2022-12-20T20:13:30.120Z,96.32
2022-12-20T20:16:32.631Z,95.98
2022-12-20T20:19:34.898Z,96.24
2022-12-20T20:22:36.906Z,96.00
2022-12-20T20:25:46.158Z,95.67
2022-12-20T20:28:48.372Z,94.86
2022-12-20T20:31:53.430Z,94.87
2022-12-20T20:34:56.023Z,94.40
2022-12-20T20:37:58.897Z,95.04
2022-12-20T20:41:01.180Z,94.74
2022-12-20T20:44:03.461Z,94.94
2022-12-20T20:47:05.806Z,94.46
2022-12-20T20:50:08.999Z,93.90
2022-12-20T20:53:12.171Z,93.39
2022-12-20T20:56:14.709Z,93.39
2022-12-20T20:59:18.090Z,92.67
2022-12-20T21:02:22.098Z,93.13
2022-12-20T21:08:49.321Z,93.14
2022-12-20T21:11:52.106Z,93.30
2022-12-20T21:15:21.139Z,92.73
2022-12-20T21:18:16.925Z,93.09
2022-12-20T21:21:20.759Z,93.30
2022-12-20T21:24:22.884Z,92.97
2022-12-20T21:27:25.380Z,92.48
2022-12-20T21:30:28.192Z,92.68
2022-12-20T21:33:30.427Z,92.81
2022-12-20T21:36:32.502Z,91.88
2022-12-20T21:39:35.388Z,91.27
2022-12-20T21:42:37.830Z,90.09
2022-12-20T21:45:39.950Z,90.43
2022-12-20T21:48:44.256Z,90.76
2022-12-20T21:51:46.735Z,90.31
2022-12-20T21:54:48.816Z,89.88
2022-12-20T21:57:54.353Z,89.68
2022-12-20T22:00:57.524Z,89.28
2022-12-20T22:04:02.573Z,87.98
2022-12-20T22:07:04.581Z,88.97
2022-12-20T22:10:08.308Z,88.79
2022-12-20T22:13:11.753Z,87.67
2022-12-20T22:16:16.779Z,87.33
2022-12-20T22:19:19.233Z,86.80
2022-12-20T22:22:21.339Z,87.34
2022-12-20T22:25:24.775Z,83.78
2022-12-20T22:28:27.310Z,86.34
2022-12-20T22:31:31.608Z,85.21
2022-12-20T22:34:33.710Z,83.83
2022-12-20T22:37:35.789Z,83.39
2022-12-20T22:40:38.393Z,83.04
2022-12-20T22:43:44.681Z,81.69
2022-12-20T22:46:46.773Z,83.07
2022-12-20T22:49:48.959Z,81.10
2022-12-20T22:52:52.456Z,77.87
2022-12-20T22:55:55.333Z,72.36
2022-12-20T22:58:57.542Z,72.28
2022-12-20T23:01:59.731Z,65.90
2022-12-20T23:05:03.269Z,71.12
2022-12-20T23:08:05.420Z,69.54
2022-12-20T23:11:45.636Z,65.74
2022-12-20T23:15:05.931Z,63.40
2022-12-20T23:18:08.053Z,66.61
2022-12-20T23:21:29.418Z,67.59
2022-12-20T23:24:32.481Z,65.03
2022-12-20T23:27:36.018Z,60.51
2022-12-20T23:30:38.017Z,64.14
2022-12-20T23:33:40.436Z,63.62
2022-12-20T23:36:42.747Z,59.76
2022-12-20T23:39:44.775Z,57.71
2022-12-20T23:42:46.993Z,61.27
2022-12-20T23:45:49.195Z,60.05
2022-12-20T23:48:51.959Z,56.34
2022-12-20T23:51:54.064Z,56.96
2022-12-20T23:54:56.123Z,56.80
2022-12-20T23:57:58.304Z,58.56
